Terminal Aerodrome Forecast
Issued by NWS

Home | Current Version | Previous Version | Graphics & Text | Print | Product List | Glossary On
Versions: 1 2 3 4 5 6 7 8 9 10 11 12
000
FTUS43 KMPX 112300
TAFAXN
TAF
KAXN 112334Z 1200/1224 31006KT P6SM SCT040
     FM120900 36005KT P6SM BKN120
     FM121600 31009KT P6SM OVC090=

USA.gov is the U.S. government's official web portal to all federal, state and local government web resources and services.